Custom Search

Airport METAR Reports

 

YMAV - Avalon Airport, Australia
Distance from station: 0 0km
Updated: 23/04/2018 02:00
Overcast
Overcast
 Wind from NE
Wind: NE 7 km/h
Temperature: 15°C
Dew Point: 15°C
Humidity: 100%
Barometer: 1019 hPa
Clouds: Overcast
Cloud details: Overcast 183 m
2018/04/22 16:00 YMAV 221600Z AUTO 05004KT //// // OVC006 15/15 Q1019
YMML - Melbourne Intl A, Australia
Distance from station: NE 50km
Updated: 23/04/2018 02:00
Fog, Overcast
Fog, Overcast
 Wind from NNW
Wind: NNW 6 km/h
Temperature: 13°C
Dew Point: 13°C
Humidity: 100%
Barometer: 1019 hPa
Summary: Fog
Clouds: Overcast
Visibility: 0 km
Cloud details: Overcast 30 m
2018/04/22 16:00 YMML 221600Z 33003KT 0250 R16/0500N FG OVC001 13/13 Q1019
YMEN - Melbourne/Essend, Australia
Distance from station: NE 51km
Updated: 23/04/2018 02:00
Overcast
Overcast
 Wind from N
Wind: N 6 km/h
Temperature: 14°C
Dew Point: 14°C
Humidity: 100%
Barometer: 1019 hPa
Clouds: Overcast
Cloud details: Overcast 91 m
2018/04/22 16:00 YMEN 221600Z AUTO 35003KT //// // OVC003 14/14 Q1019
 
YWGT - Wangaratta Arp, Australia
Distance from station: NE 241km
Updated: 23/04/2018 02:00
Clear
Clear
 Wind from SSW
Wind: SSW 7 km/h
Temperature: 8°C
Wind Chill: 7°C
Dew Point: 7°C
Humidity: 93%
Barometer: 1020 hPa
Clouds: Clear
Visibility: 10 km
2018/04/22 16:00 YWGT 221600Z AUTO 21004KT 160V290 9999 // NCD 08/07 Q1020
YMAY - Albury Airport, Australia
Distance from station: NE 308km
Updated: 23/04/2018 02:00
Clear
Clear
 Wind from calm
Wind: Calm
Temperature: 10°C
Dew Point: 8°C
Humidity: 88%
Barometer: 1020 hPa
Clouds: Clear
Visibility: 10 km
2018/04/22 16:00 YMAY 221600Z AUTO 00000KT 9999 // NCD 10/08 Q1020
YMTG - Mount Gambier, Australia
Distance from station: W 326km
Updated: 23/04/2018 02:00
Light rain, Showers, Overcast
Light rain, Showers, Overcast
 Wind from E
Wind: E 11 km/h
Temperature: 11°C
Dew Point: 11°C
Humidity: 100%
Barometer: 1018 hPa
Summary: Light rain, Showers
Clouds: Overcast
Visibility: 0 km
Cloud details: Overcast 30 m
2018/04/22 16:00 YMTG 221600Z AUTO 08006KT 0100 -SHRA OVC001 11/11 Q1018
 
YNAR - Narrandera, Australia
Distance from station: NNE 413km
Updated: 23/04/2018 02:00

 Wind from calm
Wind: Calm
Temperature: 12°C
Dew Point: 5°C
Humidity: 63%
Barometer: 1019 hPa
2018/04/22 16:00 YNAR 221600Z AUTO 00000KT //// // ////// 12/05 Q1019
YSWG - Wagga Wagga(Cv/M, Australia
Distance from station: NE 418km
Updated: 23/04/2018 02:00
Clear
Clear
 Wind from S
Wind: S 7 km/h
Temperature: 10°C
Wind Chill: 9°C
Dew Point: 7°C
Humidity: 82%
Barometer: 1019 hPa
Clouds: Clear
Visibility: 10 km
2018/04/22 16:00 YSWG 221600Z AUTO 17004KT 110V220 9999 // NCD 10/07 Q1019
YCOM - Cooma Snowy Mtns, Australia
Distance from station: ENE 441km
Updated: 23/04/2018 02:13
Clear
Clear
 Wind from calm
Wind: Calm
Temperature: 5°C
Dew Point: 4°C
Humidity: 93%
Barometer: 1022 hPa
Clouds: Clear
Visibility: 6 km
2018/04/22 16:13 YCOM 221613Z AUTO 00000KT 6000 // NCD 05/04 Q1022
 
YGTH - Griffith Arpt, Australia
Distance from station: NNE 444km
Updated: 23/04/2018 02:00
Clear
Clear
 Wind from calm
Wind: Calm
Temperature: 12°C
Dew Point: 3°C
Humidity: 54%
Barometer: 1019 hPa
Clouds: Clear
Visibility: 10 km
2018/04/22 16:00 YGTH 221600Z AUTO 00000KT 9999 // NCD 12/03 Q1019
YMLT - Launceston Airpo, Australia
Distance from station: SSE 451km
Updated: 23/04/2018 02:00
Overcast
Overcast
 Wind from NNE
Wind: NNE 6 km/h
Temperature: 8°C
Dew Point: 8°C
Humidity: 100%
Barometer: 1019 hPa
Clouds: Overcast
Visibility: 0 km
Cloud details: Partly cloudy 183 m
Overcast 610 m
2018/04/22 16:00 YMLT 221600Z AUTO 03003KT 0100 // SCT006 OVC020 08/08 Q1019
YMIA - Mildura Arpt, Australia
Distance from station: NNW 474km
Updated: 23/04/2018 02:00
Clear
Clear
 Wind from ESE
Wind: ESE 7 km/h
Temperature: 15°C
Dew Point: 6°C
Humidity: 55%
Barometer: 1017 hPa
Clouds: Clear
Visibility: 10 km
2018/04/22 16:00 YMIA 221600Z AUTO 11004KT 9999 // NCD 15/06 Q1017
 
YMER - Merimbula Arpt, Australia
Distance from station: ENE 494km
Updated: 23/04/2018 02:00
Clear
Clear
 Wind from SW
Wind: SW 2 km/h
Temperature: 11°C
Dew Point: 10°C
Humidity: 94%
Barometer: 1020 hPa
Clouds: Clear
Visibility: 10 km
2018/04/22 16:00 YMER 221600Z AUTO 22001KT 9999 // NCD 11/10 Q1020
YSCB - Canberra (civ/Mi, Australia
Distance from station: NE 518km
Updated: 23/04/2018 02:00
Clear
Clear
 Wind from SSE
Wind: SSE 2 km/h
Temperature: 8°C
Dew Point: 8°C
Humidity: 100%
Barometer: 1021 hPa
Clouds: Clear
Visibility: 10 km
2018/04/22 16:00 YSCB 221600Z AUTO 15001KT 9999 // NCD 08/08 Q1021
YMHB - Hobart/Tasmania, Australia
Distance from station: SSE 590km
Updated: 23/04/2018 02:00
Mostly cloudy
Mostly cloudy
 Wind from NW
Wind: NW 11 km/h
Temperature: 11°C
Dew Point: 10°C
Humidity: 94%
Barometer: 1018 hPa
Clouds: Mostly cloudy
Visibility: 10 km
Cloud details: Few Clouds 305 m
Mostly cloudy 6401 m
2018/04/22 16:00 YMHB 221600Z 31006KT 9999 FEW010 BKN210 11/10 Q1018